createdAt,value
2023-04-19T00:00:48.124Z,84.37
2023-04-19T00:05:39.759Z,84.65
2023-04-19T00:10:31.336Z,84.15
2023-04-19T00:15:22.989Z,84.73
2023-04-19T00:20:14.632Z,84.84
2023-04-19T00:25:06.721Z,84.51
2023-04-19T00:29:58.317Z,84.76
2023-04-19T00:34:50.161Z,85.07
2023-04-19T00:39:41.802Z,85.35
2023-04-19T00:44:33.361Z,85.40
2023-04-19T00:49:26.076Z,85.36
2023-04-19T00:54:18.760Z,85.75
2023-04-19T00:59:11.710Z,85.56
2023-04-19T01:04:03.531Z,86.00
2023-04-19T01:08:55.232Z,85.88
2023-04-19T01:13:46.779Z,86.01
2023-04-19T01:18:40.649Z,86.24
2023-04-19T01:23:32.412Z,86.00
2023-04-19T01:28:24.006Z,86.72
2023-04-19T01:33:15.761Z,86.91
2023-04-19T01:38:07.626Z,86.89
2023-04-19T01:42:59.368Z,87.30
2023-04-19T01:47:51.703Z,87.69
2023-04-19T01:52:43.418Z,87.63
2023-04-19T01:57:35.082Z,87.40
2023-04-19T02:02:27.004Z,87.53
2023-04-19T02:07:18.740Z,87.63
2023-04-19T02:12:10.286Z,87.34
2023-04-19T02:17:01.870Z,87.99
2023-04-19T02:21:57.653Z,87.79
2023-04-19T02:26:49.340Z,88.20
2023-04-19T02:31:40.910Z,88.18
2023-04-19T02:36:32.482Z,88.35
2023-04-19T02:41:24.013Z,88.04
2023-04-19T02:46:15.628Z,88.06
2023-04-19T02:51:07.326Z,88.28
2023-04-19T02:55:59.039Z,88.36
2023-04-19T03:00:50.603Z,88.51
2023-04-19T03:05:42.194Z,89.02
2023-04-19T03:10:33.766Z,88.92
2023-04-19T03:15:25.352Z,89.41
2023-04-19T03:20:17.342Z,89.30
2023-04-19T03:25:12.473Z,90.00
2023-04-19T03:30:04.541Z,90.44
2023-04-19T03:34:56.106Z,90.46
2023-04-19T03:39:47.651Z,90.42
2023-04-19T03:44:39.239Z,90.42
2023-04-19T03:49:31.507Z,90.60
2023-04-19T03:54:23.080Z,91.58
2023-04-19T03:59:14.619Z,92.22
2023-04-19T04:04:06.378Z,91.83
2023-04-19T04:08:58.020Z,91.60
2023-04-19T04:13:50.502Z,92.79
2023-04-19T04:18:42.428Z,92.74
2023-04-19T04:23:33.999Z,92.49
2023-04-19T04:28:25.752Z,93.09
2023-04-19T04:33:18.104Z,93.10
2023-04-19T04:38:21.526Z,93.60
2023-04-19T04:43:15.543Z,93.07
2023-04-19T04:48:07.203Z,93.62
2023-04-19T04:52:58.797Z,93.67
2023-04-19T04:57:50.648Z,94.28
2023-04-19T05:02:42.731Z,93.94
2023-04-19T05:07:34.331Z,94.21
2023-04-19T05:12:25.916Z,93.83
2023-04-19T05:17:18.487Z,94.10
2023-04-19T05:22:10.291Z,94.44
2023-04-19T05:27:01.935Z,94.79
2023-04-19T05:31:53.640Z,94.27
2023-04-19T05:36:45.427Z,94.85
2023-04-19T05:41:37.121Z,95.48
2023-04-19T05:46:28.751Z,95.00
2023-04-19T05:51:20.396Z,95.18
2023-04-19T05:56:11.966Z,95.50
2023-04-19T06:01:04.604Z,94.69
2023-04-19T06:05:56.396Z,94.79
2023-04-19T06:10:54.862Z,94.71
2023-04-19T06:15:50.093Z,94.54
2023-04-19T06:20:42.186Z,94.35
2023-04-19T06:25:33.952Z,94.82
2023-04-19T06:30:25.816Z,95.28
2023-04-19T06:35:17.538Z,95.29
2023-04-19T06:40:09.673Z,95.07
2023-04-19T06:45:01.638Z,95.50
2023-04-19T06:49:54.019Z,95.17
2023-04-19T06:54:49.756Z,95.65
2023-04-19T06:59:41.330Z,95.23
2023-04-19T07:04:33.561Z,95.94
2023-04-19T07:09:25.207Z,95.26
2023-04-19T07:14:19.331Z,94.88
2023-04-19T07:19:10.910Z,94.69
2023-04-19T07:24:02.590Z,95.21
2023-04-19T07:28:54.161Z,93.86
2023-04-19T07:33:45.809Z,93.45
2023-04-19T07:38:37.378Z,92.49
2023-04-19T07:43:30.267Z,92.68
2023-04-19T07:48:21.995Z,92.24
2023-04-19T07:53:13.588Z,92.12
2023-04-19T07:58:05.173Z,92.00
2023-04-19T08:02:57.450Z,92.88
2023-04-19T08:07:51.909Z,89.86
2023-04-19T08:12:50.662Z,88.92
2023-04-19T08:17:53.346Z,85.54
2023-04-19T08:22:45.676Z,85.86
2023-04-19T08:27:37.341Z,85.47
2023-04-19T08:32:28.981Z,84.44
2023-04-19T08:37:20.912Z,85.00
2023-04-19T08:42:24.797Z,84.81
2023-04-19T08:47:31.216Z,85.54
2023-04-19T08:52:27.251Z,85.59
2023-04-19T08:57:18.805Z,83.58
2023-04-19T09:02:10.479Z,82.82
2023-04-19T09:07:02.357Z,82.11
2023-04-19T09:11:53.918Z,80.73
2023-04-19T09:16:45.847Z,81.61
2023-04-19T09:21:37.657Z,81.03
2023-04-19T09:26:30.041Z,80.70
2023-04-19T09:31:39.193Z,80.04
2023-04-19T09:36:33.894Z,79.19
2023-04-19T09:41:26.551Z,78.71
2023-04-19T09:46:31.893Z,78.89
2023-04-19T09:51:23.596Z,78.53
2023-04-19T09:56:15.518Z,79.78
2023-04-19T10:01:15.040Z,80.16
2023-04-19T10:06:10.949Z,80.29
2023-04-19T10:11:13.417Z,79.10
2023-04-19T10:16:18.019Z,79.64
2023-04-19T10:21:11.183Z,80.56
2023-04-19T10:26:04.853Z,79.37
2023-04-19T10:31:03.834Z,79.16
2023-04-19T10:35:57.741Z,79.69
2023-04-19T10:40:52.429Z,79.55
2023-04-19T10:45:45.357Z,78.88
2023-04-19T10:50:59.231Z,78.55
2023-04-19T10:55:51.636Z,78.41
2023-04-19T11:00:43.303Z,78.25
2023-04-19T11:06:30.992Z,78.33
2023-04-19T11:11:22.644Z,75.43
2023-04-19T11:16:14.317Z,77.01
2023-04-19T11:21:05.991Z,76.15
2023-04-19T11:25:59.223Z,76.09
2023-04-19T11:30:54.175Z,75.91
2023-04-19T11:35:45.754Z,76.31
2023-04-19T11:40:37.635Z,77.19
2023-04-19T11:45:34.381Z,77.78
2023-04-19T11:50:39.018Z,78.00
2023-04-19T11:55:33.370Z,78.19
2023-04-19T12:00:29.284Z,77.75
2023-04-19T12:05:21.295Z,76.67
2023-04-19T12:10:13.772Z,75.92
2023-04-19T12:15:08.100Z,75.45
2023-04-19T12:19:59.699Z,74.94
2023-04-19T12:24:52.252Z,74.14
2023-04-19T12:29:44.055Z,74.57
2023-04-19T12:34:36.056Z,74.95
2023-04-19T12:39:28.806Z,72.43
2023-04-19T12:44:20.478Z,70.72
2023-04-19T12:49:12.078Z,71.31
2023-04-19T12:54:03.846Z,69.39
2023-04-19T12:58:55.530Z,68.49
2023-04-19T13:03:47.700Z,65.28
2023-04-19T13:08:45.439Z,65.47
2023-04-19T13:13:39.321Z,65.79
2023-04-19T13:18:31.065Z,64.84
2023-04-19T13:23:22.644Z,64.93
2023-04-19T13:28:14.467Z,64.58
2023-04-19T13:33:08.264Z,64.57
2023-04-19T13:38:00.518Z,63.97
2023-04-19T13:42:53.239Z,63.59
2023-04-19T13:47:45.905Z,63.59
2023-04-19T13:52:37.513Z,64.21
2023-04-19T13:57:29.131Z,64.13
2023-04-19T14:02:21.313Z,65.06
2023-04-19T14:07:13.085Z,62.12
2023-04-19T14:12:04.850Z,60.53
2023-04-19T14:16:56.425Z,58.94
2023-04-19T14:21:48.036Z,58.01
2023-04-19T14:26:39.633Z,58.36
2023-04-19T14:31:31.584Z,59.99
2023-04-19T14:36:23.525Z,56.85
2023-04-19T14:41:15.157Z,56.24
2023-04-19T14:46:08.992Z,55.16
2023-04-19T14:51:00.665Z,55.57
2023-04-19T14:55:52.245Z,55.18
2023-04-19T15:00:44.461Z,54.10
2023-04-19T15:05:36.738Z,52.85
2023-04-19T15:10:28.462Z,49.64
2023-04-19T15:15:20.042Z,48.59
2023-04-19T15:20:11.926Z,46.31
2023-04-19T15:25:04.218Z,46.32
2023-04-19T15:29:55.812Z,47.56
2023-04-19T15:34:47.389Z,46.02
2023-04-19T15:39:38.984Z,44.82
2023-04-19T15:44:30.721Z,43.55
2023-04-19T15:49:22.263Z,42.99
2023-04-19T15:54:14.869Z,42.24
2023-04-19T15:59:06.490Z,41.70
2023-04-19T16:03:58.302Z,40.98
2023-04-19T16:08:50.396Z,40.71
2023-04-19T16:13:41.996Z,40.11
2023-04-19T16:18:33.613Z,40.73
2023-04-19T16:23:25.563Z,41.11
2023-04-19T16:28:17.357Z,41.27
2023-04-19T16:33:09.018Z,40.81
2023-04-19T16:38:04.330Z,40.98
2023-04-19T16:42:56.021Z,38.99
2023-04-19T16:47:48.164Z,36.88
2023-04-19T16:52:40.049Z,37.34
2023-04-19T16:57:32.365Z,37.92
2023-04-19T17:02:24.155Z,38.89
2023-04-19T17:07:15.942Z,39.17
2023-04-19T17:12:07.708Z,38.73
2023-04-19T17:16:59.271Z,40.40
2023-04-19T17:21:50.985Z,41.81
2023-04-19T17:26:42.695Z,41.64
2023-04-19T17:31:34.332Z,42.17
2023-04-19T17:36:26.799Z,42.74
2023-04-19T17:41:18.441Z,43.67
2023-04-19T17:46:13.259Z,44.28
2023-04-19T17:51:05.053Z,45.20
2023-04-19T17:55:56.906Z,45.72
2023-04-19T18:00:48.732Z,45.06
2023-04-19T18:05:40.822Z,45.62
2023-04-19T18:10:32.684Z,45.03
2023-04-19T18:15:24.424Z,45.53
2023-04-19T18:20:16.269Z,46.28
2023-04-19T18:25:08.611Z,46.56
2023-04-19T18:30:03.595Z,46.80
2023-04-19T18:34:55.239Z,47.09
2023-04-19T18:39:47.131Z,47.29
2023-04-19T18:44:52.750Z,47.68
2023-04-19T18:49:55.619Z,48.50
2023-04-19T18:54:56.241Z,48.85
2023-04-19T18:59:47.880Z,49.00
2023-04-19T19:04:52.015Z,49.62
2023-04-19T19:09:55.660Z,50.00
2023-04-19T19:14:47.989Z,50.43
2023-04-19T19:19:39.704Z,50.80
2023-04-19T19:24:32.603Z,51.50
2023-04-19T19:29:25.777Z,51.30
2023-04-19T19:34:27.271Z,51.92
2023-04-19T19:39:22.187Z,53.00
2023-04-19T19:44:13.867Z,53.07
2023-04-19T19:49:06.570Z,53.46
2023-04-19T19:53:58.658Z,54.02
2023-04-19T19:58:51.963Z,53.76
2023-04-19T20:03:44.245Z,54.12
2023-04-19T20:08:39.421Z,53.75
2023-04-19T20:13:33.217Z,53.99
2023-04-19T20:18:25.527Z,54.66
2023-04-19T20:23:19.863Z,54.87
2023-04-19T20:28:12.514Z,54.81
2023-04-19T20:33:04.256Z,55.28
2023-04-19T20:38:02.426Z,55.48
2023-04-19T20:42:53.921Z,56.04
2023-04-19T20:47:47.075Z,56.52
2023-04-19T20:52:38.879Z,56.14
2023-04-19T20:57:30.888Z,55.92
2023-04-19T21:02:23.081Z,56.31
2023-04-19T21:07:14.908Z,56.43
2023-04-19T21:12:06.538Z,56.79
2023-04-19T21:16:58.148Z,57.00
2023-04-19T21:21:49.831Z,56.76
2023-04-19T21:26:41.406Z,57.42
2023-04-19T21:31:33.152Z,57.26
2023-04-19T21:36:24.930Z,57.74
2023-04-19T21:41:16.561Z,57.76
2023-04-19T21:46:08.220Z,58.26
2023-04-19T21:51:00.812Z,58.17
2023-04-19T21:55:52.496Z,58.79
2023-04-19T22:00:44.353Z,58.26
2023-04-19T22:05:36.402Z,58.09
2023-04-19T22:10:29.041Z,58.59
2023-04-19T22:15:21.058Z,58.38
2023-04-19T22:20:14.873Z,58.60
2023-04-19T22:25:06.995Z,58.67
2023-04-19T22:29:58.727Z,58.77
2023-04-19T22:34:50.609Z,59.53
2023-04-19T22:39:42.170Z,59.34
2023-04-19T22:44:33.934Z,59.70
2023-04-19T22:49:25.552Z,59.73
2023-04-19T22:54:17.247Z,59.69
2023-04-19T22:59:08.920Z,59.30
2023-04-19T23:04:00.700Z,59.75
2023-04-19T23:08:52.402Z,59.45
2023-04-19T23:13:44.379Z,60.18
2023-04-19T23:18:36.300Z,60.55
2023-04-19T23:23:27.848Z,60.49
2023-04-19T23:28:19.539Z,60.48
2023-04-19T23:33:11.304Z,61.21
2023-04-19T23:38:02.978Z,62.08
2023-04-19T23:42:54.524Z,62.66
2023-04-19T23:47:46.207Z,63.01
2023-04-19T23:52:37.809Z,63.38
2023-04-19T23:57:29.511Z,64.11
